sensor_id;sensor_type;location;lat;lon;timestamp;temperature;humidity
14519;DHT22;7346;50.846;4.388;2022-09-30T00:00:48;11.70;99.90
14519;DHT22;7346;50.846;4.388;2022-09-30T00:03:15;11.60;99.90
14519;DHT22;7346;50.846;4.388;2022-09-30T00:05:43;11.70;99.90
14519;DHT22;7346;50.846;4.388;2022-09-30T00:08:24;11.70;99.90
14519;DHT22;7346;50.846;4.388;2022-09-30T00:10:59;11.70;99.90
14519;DHT22;7346;50.846;4.388;2022-09-30T00:13:26;11.70;99.90
14519;DHT22;7346;50.846;4.388;2022-09-30T00:15:53;11.70;99.90
14519;DHT22;7346;50.846;4.388;2022-09-30T00:18:20;11.60;99.90
14519;DHT22;7346;50.846;4.388;2022-09-30T00:20:49;11.60;99.90
14519;DHT22;7346;50.846;4.388;2022-09-30T00:23:17;11.60;99.90
14519;DHT22;7346;50.846;4.388;2022-09-30T00:25:44;11.50;99.90
14519;DHT22;7346;50.846;4.388;2022-09-30T00:28:11;11.50;99.90
14519;DHT22;7346;50.846;4.388;2022-09-30T00:30:38;11.40;99.90
14519;DHT22;7346;50.846;4.388;2022-09-30T00:33:08;11.40;99.90
14519;DHT22;7346;50.846;4.388;2022-09-30T00:35:35;11.30;99.90
14519;DHT22;7346;50.846;4.388;2022-09-30T00:38:03;11.30;99.90
14519;DHT22;7346;50.846;4.388;2022-09-30T00:40:38;11.20;99.90
14519;DHT22;7346;50.846;4.388;2022-09-30T00:43:41;11.10;99.90
14519;DHT22;7346;50.846;4.388;2022-09-30T00:46:16;11.10;99.90
14519;DHT22;7346;50.846;4.388;2022-09-30T00:49:02;11.10;99.90
14519;DHT22;7346;50.846;4.388;2022-09-30T00:51:38;11.20;99.90
14519;DHT22;7346;50.846;4.388;2022-09-30T00:54:10;11.40;99.90
14519;DHT22;7346;50.846;4.388;2022-09-30T00:56:42;11.60;99.90
14519;DHT22;7346;50.846;4.388;2022-09-30T00:59:13;11.60;99.90
14519;DHT22;7346;50.846;4.388;2022-09-30T01:01:43;11.60;99.90
14519;DHT22;7346;50.846;4.388;2022-09-30T01:04:12;11.50;99.90
14519;DHT22;7346;50.846;4.388;2022-09-30T01:06:40;11.40;99.90
14519;DHT22;7346;50.846;4.388;2022-09-30T01:09:09;11.50;99.90
14519;DHT22;7346;50.846;4.388;2022-09-30T01:11:37;11.50;99.90
14519;DHT22;7346;50.846;4.388;2022-09-30T01:14:19;11.30;99.90
14519;DHT22;7346;50.846;4.388;2022-09-30T01:17:07;11.10;99.90
14519;DHT22;7346;50.846;4.388;2022-09-30T01:20:08;11.10;99.90
14519;DHT22;7346;50.846;4.388;2022-09-30T01:22:41;11.20;99.90
14519;DHT22;7346;50.846;4.388;2022-09-30T01:25:49;11.10;99.90
14519;DHT22;7346;50.846;4.388;2022-09-30T01:31:39;10.80;99.90
14519;DHT22;7346;50.846;4.388;2022-09-30T01:34:15;10.80;99.90
14519;DHT22;7346;50.846;4.388;2022-09-30T01:36:57;10.80;99.90
14519;DHT22;7346;50.846;4.388;2022-09-30T01:39:41;10.90;99.90
14519;DHT22;7346;50.846;4.388;2022-09-30T01:42:15;11.00;99.90
14519;DHT22;7346;50.846;4.388;2022-09-30T01:44:53;11.00;99.90
14519;DHT22;7346;50.846;4.388;2022-09-30T01:47:31;10.90;99.90
14519;DHT22;7346;50.846;4.388;2022-09-30T01:50:02;10.90;99.90
14519;DHT22;7346;50.846;4.388;2022-09-30T01:52:37;10.80;99.90
14519;DHT22;7346;50.846;4.388;2022-09-30T01:55:08;10.80;99.90
14519;DHT22;7346;50.846;4.388;2022-09-30T01:57:42;10.70;99.90
14519;DHT22;7346;50.846;4.388;2022-09-30T02:00:12;10.80;99.90
14519;DHT22;7346;50.846;4.388;2022-09-30T02:02:45;10.80;99.90
14519;DHT22;7346;50.846;4.388;2022-09-30T02:05:18;10.80;99.90
14519;DHT22;7346;50.846;4.388;2022-09-30T02:07:50;10.70;99.90
14519;DHT22;7346;50.846;4.388;2022-09-30T02:10:22;10.60;99.90
14519;DHT22;7346;50.846;4.388;2022-09-30T02:12:54;10.70;99.90
14519;DHT22;7346;50.846;4.388;2022-09-30T02:15:25;10.70;99.90
14519;DHT22;7346;50.846;4.388;2022-09-30T02:17:58;10.70;99.90
14519;DHT22;7346;50.846;4.388;2022-09-30T02:20:28;10.70;99.90
14519;DHT22;7346;50.846;4.388;2022-09-30T02:23:01;10.90;99.90
14519;DHT22;7346;50.846;4.388;2022-09-30T02:25:31;11.00;99.90
14519;DHT22;7346;50.846;4.388;2022-09-30T02:28:01;10.90;99.90
14519;DHT22;7346;50.846;4.388;2022-09-30T02:30:30;10.70;99.90
14519;DHT22;7346;50.846;4.388;2022-09-30T02:33:01;10.50;99.90
14519;DHT22;7346;50.846;4.388;2022-09-30T02:35:33;10.40;99.90
14519;DHT22;7346;50.846;4.388;2022-09-30T02:38:02;10.40;99.90
14519;DHT22;7346;50.846;4.388;2022-09-30T02:40:34;10.50;99.90
14519;DHT22;7346;50.846;4.388;2022-09-30T02:43:04;10.60;99.90
14519;DHT22;7346;50.846;4.388;2022-09-30T02:45:38;10.70;99.90
14519;DHT22;7346;50.846;4.388;2022-09-30T02:48:22;10.70;99.90
14519;DHT22;7346;50.846;4.388;2022-09-30T02:50:56;10.80;99.90
14519;DHT22;7346;50.846;4.388;2022-09-30T02:53:30;10.80;99.90
14519;DHT22;7346;50.846;4.388;2022-09-30T02:56:12;10.90;99.90
14519;DHT22;7346;50.846;4.388;2022-09-30T02:58:41;10.90;99.90
14519;DHT22;7346;50.846;4.388;2022-09-30T03:01:10;10.80;99.90
14519;DHT22;7346;50.846;4.388;2022-09-30T03:03:41;10.90;99.90
14519;DHT22;7346;50.846;4.388;2022-09-30T03:06:09;11.00;99.90
14519;DHT22;7346;50.846;4.388;2022-09-30T03:08:37;11.00;99.90
14519;DHT22;7346;50.846;4.388;2022-09-30T03:11:04;11.10;99.90
14519;DHT22;7346;50.846;4.388;2022-09-30T03:16:37;11.20;99.90
14519;DHT22;7346;50.846;4.388;2022-09-30T03:19:30;11.20;99.90
14519;DHT22;7346;50.846;4.388;2022-09-30T03:22:18;11.30;99.90
14519;DHT22;7346;50.846;4.388;2022-09-30T03:25:13;11.30;99.90
14519;DHT22;7346;50.846;4.388;2022-09-30T03:27:50;11.30;99.90
14519;DHT22;7346;50.846;4.388;2022-09-30T03:30:24;11.30;99.90
14519;DHT22;7346;50.846;4.388;2022-09-30T03:33:01;11.10;99.90
14519;DHT22;7346;50.846;4.388;2022-09-30T03:35:37;10.90;99.90
14519;DHT22;7346;50.846;4.388;2022-09-30T03:38:11;10.80;99.90
14519;DHT22;7346;50.846;4.388;2022-09-30T03:40:42;10.80;99.90
14519;DHT22;7346;50.846;4.388;2022-09-30T03:43:20;10.80;99.90
14519;DHT22;7346;50.846;4.388;2022-09-30T03:45:54;10.80;99.90
14519;DHT22;7346;50.846;4.388;2022-09-30T03:48:24;10.80;99.90
14519;DHT22;7346;50.846;4.388;2022-09-30T03:50:55;10.80;99.90
14519;DHT22;7346;50.846;4.388;2022-09-30T03:53:22;10.80;99.90
14519;DHT22;7346;50.846;4.388;2022-09-30T03:55:51;10.80;99.90
14519;DHT22;7346;50.846;4.388;2022-09-30T03:58:20;10.70;99.90
14519;DHT22;7346;50.846;4.388;2022-09-30T04:00:49;10.60;99.90
14519;DHT22;7346;50.846;4.388;2022-09-30T04:03:18;10.60;99.90
14519;DHT22;7346;50.846;4.388;2022-09-30T04:05:45;10.60;99.90
14519;DHT22;7346;50.846;4.388;2022-09-30T04:08:14;10.60;99.90
14519;DHT22;7346;50.846;4.388;2022-09-30T04:10:42;10.60;99.90
14519;DHT22;7346;50.846;4.388;2022-09-30T04:13:10;10.60;99.90
14519;DHT22;7346;50.846;4.388;2022-09-30T04:15:37;10.50;99.90
14519;DHT22;7346;50.846;4.388;2022-09-30T04:18:05;10.50;99.90
14519;DHT22;7346;50.846;4.388;2022-09-30T04:20:32;10.50;99.90
14519;DHT22;7346;50.846;4.388;2022-09-30T04:22:59;10.40;99.90
14519;DHT22;7346;50.846;4.388;2022-09-30T04:25:28;10.40;99.90
14519;DHT22;7346;50.846;4.388;2022-09-30T04:27:55;10.40;99.90
14519;DHT22;7346;50.846;4.388;2022-09-30T04:30:22;10.40;99.90
14519;DHT22;7346;50.846;4.388;2022-09-30T04:32:49;10.30;99.90
14519;DHT22;7346;50.846;4.388;2022-09-30T04:35:16;10.40;99.90
14519;DHT22;7346;50.846;4.388;2022-09-30T04:37:43;10.30;99.90
14519;DHT22;7346;50.846;4.388;2022-09-30T04:40:11;10.20;99.90
14519;DHT22;7346;50.846;4.388;2022-09-30T04:42:40;10.20;99.90
14519;DHT22;7346;50.846;4.388;2022-09-30T04:45:09;10.20;99.90
14519;DHT22;7346;50.846;4.388;2022-09-30T04:47:36;10.20;99.90
14519;DHT22;7346;50.846;4.388;2022-09-30T04:50:04;10.30;99.90
14519;DHT22;7346;50.846;4.388;2022-09-30T04:52:31;10.30;99.90
14519;DHT22;7346;50.846;4.388;2022-09-30T04:54:58;10.20;99.90
14519;DHT22;7346;50.846;4.388;2022-09-30T04:57:25;10.30;99.90
14519;DHT22;7346;50.846;4.388;2022-09-30T04:59:54;10.30;99.90
14519;DHT22;7346;50.846;4.388;2022-09-30T05:02:21;10.30;99.90
14519;DHT22;7346;50.846;4.388;2022-09-30T05:04:47;10.30;99.90
14519;DHT22;7346;50.846;4.388;2022-09-30T05:07:14;10.30;99.90
14519;DHT22;7346;50.846;4.388;2022-09-30T05:09:41;10.20;99.90
14519;DHT22;7346;50.846;4.388;2022-09-30T05:12:08;10.20;99.90
14519;DHT22;7346;50.846;4.388;2022-09-30T05:14:35;10.10;99.90
14519;DHT22;7346;50.846;4.388;2022-09-30T05:17:03;10.00;99.90
14519;DHT22;7346;50.846;4.388;2022-09-30T05:19:30;10.00;99.90
14519;DHT22;7346;50.846;4.388;2022-09-30T05:21:57;10.00;99.90
14519;DHT22;7346;50.846;4.388;2022-09-30T05:24:24;10.00;99.90
14519;DHT22;7346;50.846;4.388;2022-09-30T05:26:51;10.10;99.90
14519;DHT22;7346;50.846;4.388;2022-09-30T05:29:21;10.10;99.90
14519;DHT22;7346;50.846;4.388;2022-09-30T05:31:48;10.10;99.90
14519;DHT22;7346;50.846;4.388;2022-09-30T05:34:16;10.10;99.90
14519;DHT22;7346;50.846;4.388;2022-09-30T05:36:43;10.20;99.90
14519;DHT22;7346;50.846;4.388;2022-09-30T05:39:11;10.20;99.90
14519;DHT22;7346;50.846;4.388;2022-09-30T05:41:38;10.10;99.90
14519;DHT22;7346;50.846;4.388;2022-09-30T05:44:05;10.20;99.90
14519;DHT22;7346;50.846;4.388;2022-09-30T05:46:34;10.30;99.90
14519;DHT22;7346;50.846;4.388;2022-09-30T05:49:01;10.20;99.90
14519;DHT22;7346;50.846;4.388;2022-09-30T05:51:38;10.20;99.90
14519;DHT22;7346;50.846;4.388;2022-09-30T05:54:05;10.20;99.90
14519;DHT22;7346;50.846;4.388;2022-09-30T05:56:32;10.20;99.90
14519;DHT22;7346;50.846;4.388;2022-09-30T05:59:00;10.10;99.90
14519;DHT22;7346;50.846;4.388;2022-09-30T06:01:27;10.10;99.90
14519;DHT22;7346;50.846;4.388;2022-09-30T06:03:54;10.10;99.90
14519;DHT22;7346;50.846;4.388;2022-09-30T06:06:21;10.20;99.90
14519;DHT22;7346;50.846;4.388;2022-09-30T06:08:51;10.20;99.90
14519;DHT22;7346;50.846;4.388;2022-09-30T06:11:21;10.20;99.90
14519;DHT22;7346;50.846;4.388;2022-09-30T06:13:51;10.20;99.90
14519;DHT22;7346;50.846;4.388;2022-09-30T06:16:19;10.20;99.90
14519;DHT22;7346;50.846;4.388;2022-09-30T06:18:46;10.20;99.90
14519;DHT22;7346;50.846;4.388;2022-09-30T06:21:15;10.30;99.90
14519;DHT22;7346;50.846;4.388;2022-09-30T06:23:43;10.30;99.90
14519;DHT22;7346;50.846;4.388;2022-09-30T06:26:13;10.40;99.90
14519;DHT22;7346;50.846;4.388;2022-09-30T06:28:41;10.40;99.90
14519;DHT22;7346;50.846;4.388;2022-09-30T06:31:09;10.40;99.90
14519;DHT22;7346;50.846;4.388;2022-09-30T06:33:37;10.50;99.90
14519;DHT22;7346;50.846;4.388;2022-09-30T06:36:04;10.50;99.90
14519;DHT22;7346;50.846;4.388;2022-09-30T06:38:32;10.50;99.90
14519;DHT22;7346;50.846;4.388;2022-09-30T06:41:02;10.50;99.90
14519;DHT22;7346;50.846;4.388;2022-09-30T06:43:30;10.50;99.90
14519;DHT22;7346;50.846;4.388;2022-09-30T06:45:57;10.50;99.90
14519;DHT22;7346;50.846;4.388;2022-09-30T06:48:25;10.60;99.90
14519;DHT22;7346;50.846;4.388;2022-09-30T06:50:57;10.60;99.90
14519;DHT22;7346;50.846;4.388;2022-09-30T06:53:25;10.60;99.90
14519;DHT22;7346;50.846;4.388;2022-09-30T06:55:56;10.60;99.90
14519;DHT22;7346;50.846;4.388;2022-09-30T06:58:24;10.60;99.90
14519;DHT22;7346;50.846;4.388;2022-09-30T07:01:04;10.50;99.90
14519;DHT22;7346;50.846;4.388;2022-09-30T07:03:33;10.50;99.90
14519;DHT22;7346;50.846;4.388;2022-09-30T07:06:02;10.50;99.90
14519;DHT22;7346;50.846;4.388;2022-09-30T07:08:31;10.60;99.90
14519;DHT22;7346;50.846;4.388;2022-09-30T07:10:59;10.60;99.90
14519;DHT22;7346;50.846;4.388;2022-09-30T07:13:27;10.60;99.90
14519;DHT22;7346;50.846;4.388;2022-09-30T07:15:54;10.60;99.90
14519;DHT22;7346;50.846;4.388;2022-09-30T07:18:23;10.60;99.90
14519;DHT22;7346;50.846;4.388;2022-09-30T07:20:53;10.60;99.90
14519;DHT22;7346;50.846;4.388;2022-09-30T07:23:21;10.70;99.90
14519;DHT22;7346;50.846;4.388;2022-09-30T07:25:52;10.80;99.90
14519;DHT22;7346;50.846;4.388;2022-09-30T07:28:21;10.90;99.90
14519;DHT22;7346;50.846;4.388;2022-09-30T07:30:52;11.00;99.90
14519;DHT22;7346;50.846;4.388;2022-09-30T07:33:20;11.10;99.90
14519;DHT22;7346;50.846;4.388;2022-09-30T07:35:53;11.10;99.90
14519;DHT22;7346;50.846;4.388;2022-09-30T07:38:22;11.20;99.90
14519;DHT22;7346;50.846;4.388;2022-09-30T07:40:51;11.20;99.90
14519;DHT22;7346;50.846;4.388;2022-09-30T07:43:19;11.30;99.90
14519;DHT22;7346;50.846;4.388;2022-09-30T07:45:46;11.40;99.90
14519;DHT22;7346;50.846;4.388;2022-09-30T07:48:14;11.40;99.90
14519;DHT22;7346;50.846;4.388;2022-09-30T07:50:56;11.50;99.90
14519;DHT22;7346;50.846;4.388;2022-09-30T07:53:23;11.50;99.90
14519;DHT22;7346;50.846;4.388;2022-09-30T07:55:50;11.60;99.90
14519;DHT22;7346;50.846;4.388;2022-09-30T07:58:17;11.70;99.90
14519;DHT22;7346;50.846;4.388;2022-09-30T08:00:46;11.80;99.90
14519;DHT22;7346;50.846;4.388;2022-09-30T08:03:15;11.90;99.90
14519;DHT22;7346;50.846;4.388;2022-09-30T08:05:42;12.00;99.90
14519;DHT22;7346;50.846;4.388;2022-09-30T08:08:12;12.00;99.90
14519;DHT22;7346;50.846;4.388;2022-09-30T08:10:38;12.10;99.90
14519;DHT22;7346;50.846;4.388;2022-09-30T08:13:06;12.10;99.90
14519;DHT22;7346;50.846;4.388;2022-09-30T08:15:33;12.10;99.90
14519;DHT22;7346;50.846;4.388;2022-09-30T08:17:59;12.20;99.90
14519;DHT22;7346;50.846;4.388;2022-09-30T08:20:26;12.30;99.90
14519;DHT22;7346;50.846;4.388;2022-09-30T08:22:54;12.30;99.90
14519;DHT22;7346;50.846;4.388;2022-09-30T08:25:23;12.40;99.90
14519;DHT22;7346;50.846;4.388;2022-09-30T08:27:53;12.40;99.90
14519;DHT22;7346;50.846;4.388;2022-09-30T08:30:20;12.50;99.90
14519;DHT22;7346;50.846;4.388;2022-09-30T08:32:50;12.60;99.90
14519;DHT22;7346;50.846;4.388;2022-09-30T08:35:17;12.70;99.90
14519;DHT22;7346;50.846;4.388;2022-09-30T08:37:44;12.80;99.90
14519;DHT22;7346;50.846;4.388;2022-09-30T08:40:17;13.00;99.90
14519;DHT22;7346;50.846;4.388;2022-09-30T08:43:01;13.30;99.90
14519;DHT22;7346;50.846;4.388;2022-09-30T08:45:37;13.70;99.90
14519;DHT22;7346;50.846;4.388;2022-09-30T08:48:18;14.10;99.90
14519;DHT22;7346;50.846;4.388;2022-09-30T08:50:55;14.10;99.90
14519;DHT22;7346;50.846;4.388;2022-09-30T08:53:28;14.00;99.90
14519;DHT22;7346;50.846;4.388;2022-09-30T08:55:56;13.80;99.90
14519;DHT22;7346;50.846;4.388;2022-09-30T08:58:30;13.80;99.90
14519;DHT22;7346;50.846;4.388;2022-09-30T09:01:03;13.80;99.90
14519;DHT22;7346;50.846;4.388;2022-09-30T09:03:32;13.90;99.90
14519;DHT22;7346;50.846;4.388;2022-09-30T09:06:10;13.80;99.90
14519;DHT22;7346;50.846;4.388;2022-09-30T09:09:01;13.80;99.90
14519;DHT22;7346;50.846;4.388;2022-09-30T09:11:40;14.10;99.90
14519;DHT22;7346;50.846;4.388;2022-09-30T09:14:25;14.40;99.90
14519;DHT22;7346;50.846;4.388;2022-09-30T09:17:02;14.80;99.90
14519;DHT22;7346;50.846;4.388;2022-09-30T09:19:36;15.00;99.90
14519;DHT22;7346;50.846;4.388;2022-09-30T09:22:04;14.90;99.90
14519;DHT22;7346;50.846;4.388;2022-09-30T09:24:36;15.00;99.90
14519;DHT22;7346;50.846;4.388;2022-09-30T09:27:17;15.00;99.90
14519;DHT22;7346;50.846;4.388;2022-09-30T09:29:52;15.20;99.90
14519;DHT22;7346;50.846;4.388;2022-09-30T09:32:20;15.10;99.90
14519;DHT22;7346;50.846;4.388;2022-09-30T09:34:50;15.00;99.90
14519;DHT22;7346;50.846;4.388;2022-09-30T09:37:24;14.80;99.90
14519;DHT22;7346;50.846;4.388;2022-09-30T09:40:19;14.80;99.90
14519;DHT22;7346;50.846;4.388;2022-09-30T09:42:57;14.70;99.90
14519;DHT22;7346;50.846;4.388;2022-09-30T09:45:33;14.70;99.90
14519;DHT22;7346;50.846;4.388;2022-09-30T09:48:07;14.80;99.90
14519;DHT22;7346;50.846;4.388;2022-09-30T09:50:40;14.70;99.90
14519;DHT22;7346;50.846;4.388;2022-09-30T09:53:32;14.70;99.90
14519;DHT22;7346;50.846;4.388;2022-09-30T09:56:14;14.80;99.90
14519;DHT22;7346;50.846;4.388;2022-09-30T09:59:08;14.80;99.90
14519;DHT22;7346;50.846;4.388;2022-09-30T10:01:39;14.90;99.90
14519;DHT22;7346;50.846;4.388;2022-09-30T10:04:12;15.00;99.90
14519;DHT22;7346;50.846;4.388;2022-09-30T10:06:48;15.10;99.90
14519;DHT22;7346;50.846;4.388;2022-09-30T10:09:37;15.20;99.90
14519;DHT22;7346;50.846;4.388;2022-09-30T10:12:25;15.30;99.90
14519;DHT22;7346;50.846;4.388;2022-09-30T10:15:00;15.40;99.90
14519;DHT22;7346;50.846;4.388;2022-09-30T10:17:31;15.50;99.90
14519;DHT22;7346;50.846;4.388;2022-09-30T10:20:01;15.50;99.90
14519;DHT22;7346;50.846;4.388;2022-09-30T10:22:32;15.50;99.90
14519;DHT22;7346;50.846;4.388;2022-09-30T10:25:16;15.50;99.90
14519;DHT22;7346;50.846;4.388;2022-09-30T10:27:52;15.70;99.90
14519;DHT22;7346;50.846;4.388;2022-09-30T10:30:31;15.80;99.90
14519;DHT22;7346;50.846;4.388;2022-09-30T10:33:01;15.90;99.90
14519;DHT22;7346;50.846;4.388;2022-09-30T10:35:29;16.00;99.90
14519;DHT22;7346;50.846;4.388;2022-09-30T10:37:58;16.10;99.90
14519;DHT22;7346;50.846;4.388;2022-09-30T10:40:28;16.00;99.90
14519;DHT22;7346;50.846;4.388;2022-09-30T10:42:55;16.00;99.90
14519;DHT22;7346;50.846;4.388;2022-09-30T10:45:26;16.00;99.90
14519;DHT22;7346;50.846;4.388;2022-09-30T10:47:55;15.90;99.90
14519;DHT22;7346;50.846;4.388;2022-09-30T10:50:24;16.00;99.90
14519;DHT22;7346;50.846;4.388;2022-09-30T10:52:55;16.10;99.90
14519;DHT22;7346;50.846;4.388;2022-09-30T10:55:31;16.00;99.90
14519;DHT22;7346;50.846;4.388;2022-09-30T10:58:21;16.00;99.90
14519;DHT22;7346;50.846;4.388;2022-09-30T11:00:50;16.10;99.90
14519;DHT22;7346;50.846;4.388;2022-09-30T11:03:24;16.20;99.90
14519;DHT22;7346;50.846;4.388;2022-09-30T11:05:56;16.20;99.90
14519;DHT22;7346;50.846;4.388;2022-09-30T11:08:29;16.30;99.90
14519;DHT22;7346;50.846;4.388;2022-09-30T11:11:03;16.20;99.90
14519;DHT22;7346;50.846;4.388;2022-09-30T11:13:37;16.20;99.90
14519;DHT22;7346;50.846;4.388;2022-09-30T11:16:11;16.20;99.90
14519;DHT22;7346;50.846;4.388;2022-09-30T11:18:46;16.40;99.90
14519;DHT22;7346;50.846;4.388;2022-09-30T11:21:19;16.40;99.90
14519;DHT22;7346;50.846;4.388;2022-09-30T11:23:50;16.40;99.90
14519;DHT22;7346;50.846;4.388;2022-09-30T11:26:28;16.40;99.90
14519;DHT22;7346;50.846;4.388;2022-09-30T11:29:14;16.50;99.90
14519;DHT22;7346;50.846;4.388;2022-09-30T11:31:47;16.60;99.90
14519;DHT22;7346;50.846;4.388;2022-09-30T11:34:28;16.70;99.90
14519;DHT22;7346;50.846;4.388;2022-09-30T11:37:03;16.70;99.90
14519;DHT22;7346;50.846;4.388;2022-09-30T11:39:46;16.70;99.90
14519;DHT22;7346;50.846;4.388;2022-09-30T11:42:21;16.70;99.90
14519;DHT22;7346;50.846;4.388;2022-09-30T11:44:56;16.70;99.90
14519;DHT22;7346;50.846;4.388;2022-09-30T11:47:49;16.90;99.90
14519;DHT22;7346;50.846;4.388;2022-09-30T11:50:30;17.20;99.90
14519;DHT22;7346;50.846;4.388;2022-09-30T11:53:10;17.40;99.90
14519;DHT22;7346;50.846;4.388;2022-09-30T11:55:53;17.60;99.90
14519;DHT22;7346;50.846;4.388;2022-09-30T11:58:25;17.60;99.90
14519;DHT22;7346;50.846;4.388;2022-09-30T12:01:05;17.60;99.90
14519;DHT22;7346;50.846;4.388;2022-09-30T12:03:37;17.60;99.90
14519;DHT22;7346;50.846;4.388;2022-09-30T12:06:10;17.80;99.90
14519;DHT22;7346;50.846;4.388;2022-09-30T12:08:44;18.00;99.90
14519;DHT22;7346;50.846;4.388;2022-09-30T12:11:17;18.00;99.90
14519;DHT22;7346;50.846;4.388;2022-09-30T12:13:49;17.80;99.90
14519;DHT22;7346;50.846;4.388;2022-09-30T12:16:20;17.70;99.90
14519;DHT22;7346;50.846;4.388;2022-09-30T12:18:54;17.30;99.90
14519;DHT22;7346;50.846;4.388;2022-09-30T12:21:25;17.30;99.90
14519;DHT22;7346;50.846;4.388;2022-09-30T12:24:01;17.20;99.90
14519;DHT22;7346;50.846;4.388;2022-09-30T12:26:30;17.00;99.90
14519;DHT22;7346;50.846;4.388;2022-09-30T12:29:01;16.90;99.90
14519;DHT22;7346;50.846;4.388;2022-09-30T12:35:36;17.10;99.90
14519;DHT22;7346;50.846;4.388;2022-09-30T12:38:21;17.10;99.90
14519;DHT22;7346;50.846;4.388;2022-09-30T12:41:02;17.00;99.90
14519;DHT22;7346;50.846;4.388;2022-09-30T12:43:56;17.30;99.90
14519;DHT22;7346;50.846;4.388;2022-09-30T12:46:52;17.10;99.90
14519;DHT22;7346;50.846;4.388;2022-09-30T12:49:25;17.00;99.90
14519;DHT22;7346;50.846;4.388;2022-09-30T12:51:56;17.20;99.90
14519;DHT22;7346;50.846;4.388;2022-09-30T12:54:38;17.40;99.90
14519;DHT22;7346;50.846;4.388;2022-09-30T12:57:11;17.40;99.90
14519;DHT22;7346;50.846;4.388;2022-09-30T12:59:50;17.20;99.90
14519;DHT22;7346;50.846;4.388;2022-09-30T13:02:30;17.10;99.90
14519;DHT22;7346;50.846;4.388;2022-09-30T13:11:35;17.00;99.90
14519;DHT22;7346;50.846;4.388;2022-09-30T13:14:21;17.10;99.90
14519;DHT22;7346;50.846;4.388;2022-09-30T13:17:25;17.00;99.90
14519;DHT22;7346;50.846;4.388;2022-09-30T13:19:54;17.10;99.90
14519;DHT22;7346;50.846;4.388;2022-09-30T13:22:52;17.10;99.90
14519;DHT22;7346;50.846;4.388;2022-09-30T13:25:19;17.20;99.90
14519;DHT22;7346;50.846;4.388;2022-09-30T13:27:48;17.30;99.90
14519;DHT22;7346;50.846;4.388;2022-09-30T13:30:49;17.40;99.90
14519;DHT22;7346;50.846;4.388;2022-09-30T13:33:44;17.50;99.90
14519;DHT22;7346;50.846;4.388;2022-09-30T13:36:26;17.40;99.90
14519;DHT22;7346;50.846;4.388;2022-09-30T13:39:22;17.40;99.90
14519;DHT22;7346;50.846;4.388;2022-09-30T13:42:06;17.30;99.90
14519;DHT22;7346;50.846;4.388;2022-09-30T13:44:39;17.20;99.90
14519;DHT22;7346;50.846;4.388;2022-09-30T13:47:17;17.20;99.90
14519;DHT22;7346;50.846;4.388;2022-09-30T13:49:51;17.30;99.90
14519;DHT22;7346;50.846;4.388;2022-09-30T13:52:24;17.60;99.90
14519;DHT22;7346;50.846;4.388;2022-09-30T13:54:54;17.70;99.90
14519;DHT22;7346;50.846;4.388;2022-09-30T13:57:25;17.70;99.90
14519;DHT22;7346;50.846;4.388;2022-09-30T14:00:05;17.50;99.90
14519;DHT22;7346;50.846;4.388;2022-09-30T14:02:54;17.50;99.90
14519;DHT22;7346;50.846;4.388;2022-09-30T14:05:46;17.60;99.90
14519;DHT22;7346;50.846;4.388;2022-09-30T14:08:40;17.70;99.90
14519;DHT22;7346;50.846;4.388;2022-09-30T14:11:18;17.90;99.90
14519;DHT22;7346;50.846;4.388;2022-09-30T14:14:01;17.90;99.90
14519;DHT22;7346;50.846;4.388;2022-09-30T14:16:52;17.80;99.90
14519;DHT22;7346;50.846;4.388;2022-09-30T14:19:46;17.70;99.90
14519;DHT22;7346;50.846;4.388;2022-09-30T14:22:18;17.60;99.90
14519;DHT22;7346;50.846;4.388;2022-09-30T14:24:50;17.60;99.90
14519;DHT22;7346;50.846;4.388;2022-09-30T14:27:28;17.60;99.90
14519;DHT22;7346;50.846;4.388;2022-09-30T14:30:05;17.80;99.90
14519;DHT22;7346;50.846;4.388;2022-09-30T14:32:41;17.90;99.90
14519;DHT22;7346;50.846;4.388;2022-09-30T14:35:15;17.70;99.90
14519;DHT22;7346;50.846;4.388;2022-09-30T14:37:46;17.60;99.90
14519;DHT22;7346;50.846;4.388;2022-09-30T14:40:16;17.50;99.90
14519;DHT22;7346;50.846;4.388;2022-09-30T14:42:46;17.50;99.90
14519;DHT22;7346;50.846;4.388;2022-09-30T14:45:23;17.50;99.90
14519;DHT22;7346;50.846;4.388;2022-09-30T14:47:54;17.50;99.90
14519;DHT22;7346;50.846;4.388;2022-09-30T14:50:27;17.50;99.90
14519;DHT22;7346;50.846;4.388;2022-09-30T14:52:56;17.60;99.90
14519;DHT22;7346;50.846;4.388;2022-09-30T14:55:27;17.60;99.90
14519;DHT22;7346;50.846;4.388;2022-09-30T14:58:19;17.70;99.90
14519;DHT22;7346;50.846;4.388;2022-09-30T15:00:55;17.80;99.90
14519;DHT22;7346;50.846;4.388;2022-09-30T15:03:23;17.80;99.90
14519;DHT22;7346;50.846;4.388;2022-09-30T15:05:51;17.80;99.90
14519;DHT22;7346;50.846;4.388;2022-09-30T15:08:20;17.80;99.90
14519;DHT22;7346;50.846;4.388;2022-09-30T15:10:48;17.70;99.90
14519;DHT22;7346;50.846;4.388;2022-09-30T15:13:18;17.60;99.90
14519;DHT22;7346;50.846;4.388;2022-09-30T15:15:45;17.60;99.90
14519;DHT22;7346;50.846;4.388;2022-09-30T15:18:31;17.70;99.90
14519;DHT22;7346;50.846;4.388;2022-09-30T15:21:08;17.90;99.90
14519;DHT22;7346;50.846;4.388;2022-09-30T15:23:38;17.80;99.90
14519;DHT22;7346;50.846;4.388;2022-09-30T15:26:07;17.30;99.90
14519;DHT22;7346;50.846;4.388;2022-09-30T15:28:36;17.20;99.90
14519;DHT22;7346;50.846;4.388;2022-09-30T15:31:05;17.30;99.90
14519;DHT22;7346;50.846;4.388;2022-09-30T15:33:34;17.70;99.90
14519;DHT22;7346;50.846;4.388;2022-09-30T15:36:04;17.80;99.90
14519;DHT22;7346;50.846;4.388;2022-09-30T15:38:33;17.80;99.90
14519;DHT22;7346;50.846;4.388;2022-09-30T15:41:03;17.90;99.90
14519;DHT22;7346;50.846;4.388;2022-09-30T15:43:36;17.80;99.90
14519;DHT22;7346;50.846;4.388;2022-09-30T15:46:29;17.60;99.90
14519;DHT22;7346;50.846;4.388;2022-09-30T15:48:59;17.50;99.90
14519;DHT22;7346;50.846;4.388;2022-09-30T15:51:37;17.50;99.90
14519;DHT22;7346;50.846;4.388;2022-09-30T15:54:30;17.40;99.90
14519;DHT22;7346;50.846;4.388;2022-09-30T15:57:01;17.20;99.90
14519;DHT22;7346;50.846;4.388;2022-09-30T15:59:58;17.00;99.90
14519;DHT22;7346;50.846;4.388;2022-09-30T16:02:27;16.90;99.90
14519;DHT22;7346;50.846;4.388;2022-09-30T16:04:54;16.80;99.90
14519;DHT22;7346;50.846;4.388;2022-09-30T16:07:23;16.70;99.90
14519;DHT22;7346;50.846;4.388;2022-09-30T16:09:53;16.70;99.90
14519;DHT22;7346;50.846;4.388;2022-09-30T16:12:23;16.60;99.90
14519;DHT22;7346;50.846;4.388;2022-09-30T16:14:58;16.60;99.90
14519;DHT22;7346;50.846;4.388;2022-09-30T16:17:28;16.60;99.90
14519;DHT22;7346;50.846;4.388;2022-09-30T16:19:59;16.50;99.90
14519;DHT22;7346;50.846;4.388;2022-09-30T16:22:47;16.50;99.90
14519;DHT22;7346;50.846;4.388;2022-09-30T16:25:22;16.40;99.90
14519;DHT22;7346;50.846;4.388;2022-09-30T16:27:54;16.30;99.90
14519;DHT22;7346;50.846;4.388;2022-09-30T16:30:22;16.20;99.90
14519;DHT22;7346;50.846;4.388;2022-09-30T16:32:51;16.20;99.90
14519;DHT22;7346;50.846;4.388;2022-09-30T16:35:20;16.20;99.90
14519;DHT22;7346;50.846;4.388;2022-09-30T16:37:50;16.10;99.90
14519;DHT22;7346;50.846;4.388;2022-09-30T16:40:22;16.10;99.90